ראשי / חיפושים אחרונים

חיפושים אחרונים

לוחית
סוג רכב
דגם
שנה
תאריך חיפוש
שעת חיפוש
2645575 פיאט פולין PANDA 2011 28/08/2026 19:43:17
33595201 ב מ וו גרמניה 318I 2018 28/08/2026 19:43:17
3641438 סקודה צ'כיה NEW SUPERB 2016 28/08/2026 19:43:17
92254101 שברולט ארהב" - 2020 28/08/2026 19:43:16
12929703 פולקסווגן גרמניה GOLF 2022 28/08/2026 19:43:15
33426304 טויוטה ארהב" HIGHLANDER 2025 28/08/2026 19:43:15
25820501 פולקסווגן גרמניה GOLF 2017 28/08/2026 19:43:14
12929703 פולקסווגן גרמניה GOLF 2022 28/08/2026 19:43:13
2636076 מזדה יפן CX5 2013 28/08/2026 19:43:13
84304002 פיג'ו צרפת 3008 2022 28/08/2026 19:43:12
75693501 טויוטה טורקיה COROLLA HSD SDN 2019 28/08/2026 19:43:12
26713104 אקספנג סין G6 2025 28/08/2026 19:43:11
89046601 מיצובישי תאילנד ATTRAGE 2020 28/08/2026 19:43:11
27162904 אף אי דאבל יו סין EHS7 2025 28/08/2026 19:43:09
9771069 טויוטה יפן - 2002 28/08/2026 19:43:09
27190404 אף אי דאבל יו סין EHS7 2025 28/08/2026 19:43:08
27541203 קיה סלובקיה SPORTAGE 2023 28/08/2026 19:43:07
7717471 טויוטה תאילנד HILUX 2010 28/08/2026 19:43:07
35781202 יונדאי קוריאה הדרומית IONIQ HYBRID 2021 28/08/2026 19:43:06
3470566 יונדאי טורקיה ACCENT 2008 28/08/2026 19:43:05
28619403 סקניה-הולנד - 2023 28/08/2026 19:43:04
1604671 סקודה צ'כיה YETI 2010 28/08/2026 19:43:03
29229904 קיה סלובקיה SPORTAGE HEV 2025 28/08/2026 19:43:02
4202532 טויוטה יפן LAND CRUISER 2015 28/08/2026 19:43:02
4234665 איסוזו תאילנד PICK-UP 2008 28/08/2026 19:43:01
3186212 סקודה צ'כיה RAPID 2013 28/08/2026 19:43:00
5891939 יונדאי צ'כיה TUCSON 2016 28/08/2026 19:42:59
32185401 קואנג יאנג טיו - 2018 28/08/2026 19:42:57
58175104 אורה סין ORA 3 2026 28/08/2026 19:42:56
5583933 קיה קוריאה הדרומית PICANTO 2015 28/08/2026 19:42:56
1036062 טויוטה יפן COROLLA 2007 28/08/2026 19:42:51
44363801 טויוטה טורקיה C-HR HYBRID 2018 28/08/2026 19:42:51
33855201 מזדה תאילנד MAZDA 2 2018 28/08/2026 19:42:50
66484503 גילי סין GEOMETRY C 2024 28/08/2026 19:42:46
38016204 לינק אנד קו סין LYNKCO08 PHEV 2025 28/08/2026 19:42:45
6058406 אופל גרמניה - 1990 28/08/2026 19:42:41
51754103 פורד ד אפריקה RANGER 2024 28/08/2026 19:42:40
67163201 פולקסווגן פולין CADDY MAXI 2019 28/08/2026 19:42:36
4144330 אלפא רומיאו איטליה ALFA GIULIETTA 2014 28/08/2026 19:42:33
3197060 הונדה יפן ACCORD 2006 28/08/2026 19:42:31
3192950 ניסאן יפן PATROL 2003 28/08/2026 19:42:31
4275670 סוזוקי הונגריה SWIFT 2010 28/08/2026 19:42:30
47195802 מזדה יפן CX-30 2021 28/08/2026 19:42:29
5005937 יונדאי צ'כיה I30 2016 28/08/2026 19:42:26
92254101 שברולט ארהב" - 2020 28/08/2026 19:42:25
60639204 קיה קוריאה הדרומית PICANTO 2026 28/08/2026 19:42:22
74979501 מרוטי סוזוקי הודו BALENO 2019 28/08/2026 19:42:21
4551458 קיה קוריאה הדרומית CERAT0 2006 28/08/2026 19:42:19
5534337 יונדאי קוריאה הדרומית I35 2016 28/08/2026 19:42:16
9773254 מזדה תאילנד MAZDA 2 2016 28/08/2026 19:42:16
7600876 פולקסווגן פורטוגל SCIROCCO 2012 28/08/2026 19:42:15
8083924 מיצובישי תאילנ L 200 2000 28/08/2026 19:42:14
1140067 פיאט איטליה GRANDE PUNTO1.2 2008 28/08/2026 19:42:11
12929703 פולקסווגן גרמניה GOLF 2022 28/08/2026 19:42:10
42763901 קיה סלובקיה SPORTAGE 2019 28/08/2026 19:42:10
48683103 מרצדס בנץ גרמנ - 2024 28/08/2026 19:42:09
4646110 פולקסווגן-ספרד KOMBI 2001 28/08/2026 19:42:06
8137211 פורד בלגיה MONDEO 2014 28/08/2026 19:42:05
24816804 סיטרואן ספרד BERLINGO 2025 28/08/2026 19:42:01
29547402 סקודה צ'כיה KODIAQ 2020 28/08/2026 19:41:56
9136437 ניסאן ספרד - 2016 28/08/2026 19:41:56
81820003 אקספנג סין G6 2024 28/08/2026 19:41:56
2502467 פולקסווגן גרמניה TIGUAN 2009 28/08/2026 19:41:55
89875101 טויוטה טורקיה COROLLA HSD SDN 2020 28/08/2026 19:41:51
2752772 קיה קוריאה הדרומית FORTE 2010 28/08/2026 19:41:50
43518101 סיטרואן ספרד C4 SPACETOURER 2018 28/08/2026 19:41:47
1133819 דייהו ד. קוריא - 1995 28/08/2026 19:41:46
92254101 שברולט ארהב" - 2020 28/08/2026 19:41:45
7101113 פיג'ו ספרד 301 2013 28/08/2026 19:41:38
20638404 וולבו שבדיה - 2025 28/08/2026 19:41:35
15629901 יונדאי צ'כיה TUCSON 2017 28/08/2026 19:41:33
6290939 יונדאי צ'כיה TUCSON 2016 28/08/2026 19:41:33
2212128 קואנג יאנג טיו - 2016 28/08/2026 19:41:18
6290939 יונדאי צ'כיה TUCSON 2016 28/08/2026 19:41:17
92254101 שברולט ארהב" - 2020 28/08/2026 19:41:15
9054478 מרצדס בנץ גרמנ - 2014 28/08/2026 19:41:12
90279001 פורשה גרמניה - 2011 28/08/2026 19:41:06
1032179 פיאט איטליה PUNTO1.4 2011 28/08/2026 19:41:05
65635202 טויוטה ארהב" HIGHLANDER 2021 28/08/2026 19:41:02
44204701 טויוטה יפן LAND CRUISER 2018 28/08/2026 19:41:00
29055601 מ.ג סין EHS PHEV 2021 28/08/2026 19:40:57
37125002 מרצדס גרמניה GLC300 E 4MATIC 2020 28/08/2026 19:40:50
6650679 קיה קוריאה הדרומית RI0 2013 28/08/2026 19:40:47
29055601 מ.ג סין EHS PHEV 2021 28/08/2026 19:40:41
15629901 יונדאי צ'כיה TUCSON 2017 28/08/2026 19:40:36
45827102 סיאט ספרד IBIZA 2021 28/08/2026 19:40:27
61576904 איסוזו יפן - 2026 28/08/2026 19:40:25
1808713 פולקסווגן גרמניה TRANSPORTER 2006 28/08/2026 19:40:23
72243601 שברולט ארהב" TRAVERSE 2020 28/08/2026 19:40:22
2399079 ניסאן יפן JUKE 2011 28/08/2026 19:40:17
4207370 מרוטי סוזוקי הודו ALTO 2010 28/08/2026 19:40:16
4591726 טויוטה יפן CAMRY HYBRID 2025 28/08/2026 19:40:14
2383223 סובארו יפן IMPREZA NEW 2001 28/08/2026 19:40:13
51531502 שברולט ארהב" TRAVERSE 2021 28/08/2026 19:40:08
65645901 סאן יאנג סין - 2019 28/08/2026 19:40:06
85463601 דוקטי איטליה - 2024 28/08/2026 19:40:05
4601239 סיטרואן ספרד BERLINGO 2016 28/08/2026 19:39:44
3468831 יונדאי טורקיה I10 2014 28/08/2026 19:39:36
9926474 מזארטי איטליה - 2013 28/08/2026 19:39:35
6815437 רנו צרפת KANGOO 2016 28/08/2026 19:39:35
81103604 טויוטה מקסיקו TACOMA 2026 28/08/2026 19:39:33
5947016 ב מ וו גרמניה 530I 2008 28/08/2026 19:39:33
1388133 ניסאן הודו MICRA 2015 28/08/2026 19:39:30
1093050 טויוטה יפן HILUX 2003 28/08/2026 19:39:25
4830339 פיג'ו צ'כיה 108 2016 28/08/2026 19:39:20
1262274 יונדאי הודו I20 2010 28/08/2026 19:39:16
2839814 שברולט קנדה IMPALA 2005 28/08/2026 19:39:15
63860002 יונדאי קוריאה הדרומית VENUE 2022 28/08/2026 19:39:10
73656803 מזדה יפן MAZDA CX-5 2024 28/08/2026 19:39:05
61576904 איסוזו יפן - 2026 28/08/2026 19:39:01
1168162 טויוטה יפן COROLLA 2007 28/08/2026 19:39:00
74550001 פולקסווגן גרמניה GOLF 2019 28/08/2026 19:39:00
5947016 ב מ וו גרמניה 530I 2008 28/08/2026 19:38:56
19168604 פיאט איטליה - 2025 28/08/2026 19:38:55
1057484 רנו טורקיה CLIO 2017 28/08/2026 19:38:50
2283867 אאודי גרמניה A4 2009 28/08/2026 19:38:45
46645903 סקודה צ'כיה OCTAVIA 2023 28/08/2026 19:38:41
63459403 בי ווי די סין ATTO 3 2024 28/08/2026 19:38:39
7206412 רנו טורקיה FLUENCE 2013 28/08/2026 19:38:34
29956003 גילי סין GEOMETRY C 2022 28/08/2026 19:38:29
7769880 פיאט פולין FIAT 500 1.2 2016 28/08/2026 19:38:24
6700685 קיה סלובקיה SPORTAGE 2017 28/08/2026 19:38:24
27192003 קיה סלובקיה SPORTAGE 2022 28/08/2026 19:38:19
81103604 טויוטה מקסיקו TACOMA 2026 28/08/2026 19:38:18
31899803 צ'רי סין TIGGO 8 PRO 2023 28/08/2026 19:38:16
1012437 טויוטה טורקיה COROLLA 2016 28/08/2026 19:38:15
23323201 פולקסווגן מקסיקה JETTA 2017 28/08/2026 19:38:14
5288232 טויוטה טורקיה COROLLA 2015 28/08/2026 19:38:09
70330804 סקודה צ'כיה KODIAQ 2026 28/08/2026 19:38:04
2490428 הסקוורנה אוסטר - 2017 28/08/2026 19:38:04
6962485 קיה קוריאה הדרומית PICANTO 2017 28/08/2026 19:37:59
1601276 פורד תורכיה TOURNEO CONNECT 2013 28/08/2026 19:37:54
1190034 מרצדס גרמניה E250 2016 28/08/2026 19:37:54
8047132 יגואר בריטניה F-PACE 2017 28/08/2026 19:37:53
9784978 מרצדס בנץ גרמנ - 2015 28/08/2026 19:37:53
6714752 טויוטה יפן LAND CRUISER 2013 28/08/2026 19:37:49
7996986 טויוטה טורקיה COROLLA 2017 28/08/2026 19:37:46
4702280 פולקסווגן מקסיקה JETTA 2017 28/08/2026 19:37:43
6978374 יונדאי קוריאה הדרומית I25 2011 28/08/2026 19:37:38
2984378 הונדה בריטניה CIVIC 2011 28/08/2026 19:37:33
88861801 מרצדס ארהב" GLE 350D 4MATIC 2021 28/08/2026 19:37:31
16029802 טויוטה טורקיה COROLLA SDN HSD 2020 28/08/2026 19:37:29
77879401 יונדאי קוריאה הדרומית ELANTRA 2019 28/08/2026 19:37:15
1013662 טויוטה יפן COROLLA 2007 28/08/2026 19:37:11
8675412 איסוזו תאילנד PICK-UP 2013 28/08/2026 19:37:08
92369001 סקודה צ'כיה OCTAVIA 2016 28/08/2026 19:37:07
49156402 קימקו טאיוון - 2025 28/08/2026 19:37:07
88861801 מרצדס ארהב" GLE 350D 4MATIC 2021 28/08/2026 19:37:06
6607973 סיאט ספרד IBIZA 2011 28/08/2026 19:37:04
23399802 גולדן דרגון סי - 2023 28/08/2026 19:37:03
2998064 פולקסווגן ספרד POLO 2008 28/08/2026 19:36:58
92432601 ב מ וו גרמניה - 2019 28/08/2026 19:36:58
71177701 קיה קוריאה הדרומית NIRO 2020 28/08/2026 19:36:57
3395418 אופל בלגיה אסטרה 6.1, 4 דלתות, 1996 28/08/2026 19:36:53
33876802 אריאל נגררים - 2020 28/08/2026 19:36:48
1137211 יונדאי צ'כיה I30 2012 28/08/2026 19:36:44
4637769 ניסאן מקסיקו TIIDA 2009 28/08/2026 19:36:43
4220059 סובארו יפן FORESTER 2014 28/08/2026 19:36:34
54225402 יונדאי קוריאה הדרומית KONA HYBRID 2021 28/08/2026 19:36:33
61539402 מרצדס בנץ גרמנ - 2022 28/08/2026 19:36:32
1305051 פיג'ו צרפת 307 2003 28/08/2026 19:36:18
5678964 סיטרואן ספרד C-ELYSEE 2014 28/08/2026 19:36:09
49300103 אאודי גרמניה RS3 SPORTBACK 2023 28/08/2026 19:35:57
7207054 ב מ וו גרמניה 435I 2015 28/08/2026 19:35:46
5841413 סוזוקי הונגריה SX4 2012 28/08/2026 19:35:45
2947370 טויוטה יפן COROLLA 2009 28/08/2026 19:35:41
16588402 טויוטה בריטניה COROLLA TS HSD 2020 28/08/2026 19:35:38
49355103 פולקסווגן גרמניה GOLF 2023 28/08/2026 19:35:34
49355103 פולקסווגן גרמניה GOLF 2023 28/08/2026 19:35:33
82395502 טויוטה תאילנד HILUX 2022 28/08/2026 19:35:33
57020301 נאנגינג סין - 2018 28/08/2026 19:35:23
2449430 ב מ וו גרמניה 420I 2016 28/08/2026 19:35:21
82395502 טויוטה תאילנד HILUX 2022 28/08/2026 19:35:17
5727776 יונדאי קוריאה הדרומית I35 2011 28/08/2026 19:35:11
1144876 מזדה יפן MAZDA 6 2013 28/08/2026 19:35:10
2700207 פולקסווגן גרמנ - 1993 28/08/2026 19:35:07
1300533 רנו טורקיה FLUENCE 2015 28/08/2026 19:35:06
9266313 אלפא רומיאו איטליה ALFA GIULIETTA 2012 28/08/2026 19:35:04
1042585 קיה קוריאה הדרומית PICANTO 2016 28/08/2026 19:34:47
33394001 מזדה תאילנד MAZDA 2 2018 28/08/2026 19:34:42
25589903 מרצדס גרמניה S580E 2023 28/08/2026 19:34:42
81879301 יונדאי טורקיה I20 2019 28/08/2026 19:34:37
3834967 סקודה צ'כיה SUPERB 2009 28/08/2026 19:34:34
3354454 ניסאן בריטניה JUKE 2014 28/08/2026 19:34:32
5862463 דימלרקריזלר-גר - 2008 28/08/2026 19:34:28
27956903 מזדה מקסיקו MAZDA 3 2022 28/08/2026 19:34:28
61190602 סקודה צ'כיה OCTAVIA 2021 28/08/2026 19:34:27
47255702 ב מ וו גרמניה 330E 2021 28/08/2026 19:34:22
1325333 רנו טורקיה FLUENCE 2015 28/08/2026 19:34:22
49355103 פולקסווגן גרמניה GOLF 2023 28/08/2026 19:34:19
3784213 פורד ספרד FOCUS 2006 28/08/2026 19:34:17
4406955 מזדה יפן CX-5 2017 28/08/2026 19:34:17
82395502 טויוטה תאילנד HILUX 2022 28/08/2026 19:34:16
35526401 סאן יאנג טיואן - 2018 28/08/2026 19:34:16
5672132 טויוטה צרפת YARIS 2015 28/08/2026 19:34:12
6819931 קיה סלובקיה SPORTAGE 2014 28/08/2026 19:34:10
61722104 צ'רי סין TIGGO8PRO PHEV 2026 28/08/2026 19:34:07
78741101 וולבו בלגיה XC40 T5 2020 28/08/2026 19:34:02
51067803 מזדה תאילנד MAZDA 2 2023 28/08/2026 19:34:01
55355301 יונדאי טורקיה I20 2019 28/08/2026 19:33:58
וואטסאפ